createdAt,value
2022-11-29T00:01:01.004Z,2.90
2022-11-29T00:03:28.591Z,2.90
2022-11-29T00:05:55.980Z,2.90
2022-11-29T00:08:24.213Z,3.00
2022-11-29T00:10:51.059Z,3.00
2022-11-29T00:13:18.014Z,2.90
2022-11-29T00:15:44.753Z,2.90
2022-11-29T00:18:11.509Z,2.90
2022-11-29T00:20:39.429Z,2.90
2022-11-29T00:23:06.425Z,2.90
2022-11-29T00:25:33.344Z,2.90
2022-11-29T00:28:00.049Z,2.90
2022-11-29T00:30:27.715Z,2.80
2022-11-29T00:32:54.505Z,2.80
2022-11-29T00:35:21.258Z,2.90
2022-11-29T00:37:47.973Z,2.80
2022-11-29T00:40:14.740Z,2.90
2022-11-29T00:42:41.463Z,2.90
2022-11-29T00:45:08.495Z,2.90
2022-11-29T00:47:35.291Z,2.90
2022-11-29T00:50:02.021Z,2.90
2022-11-29T00:52:29.329Z,3.00
2022-11-29T00:54:56.084Z,3.00
2022-11-29T00:57:22.868Z,3.00
2022-11-29T00:59:49.601Z,3.00
2022-11-29T01:02:16.422Z,3.00
2022-11-29T01:04:43.592Z,3.10
2022-11-29T01:07:10.498Z,3.10
2022-11-29T01:09:37.201Z,3.10
2022-11-29T01:12:04.145Z,3.10
2022-11-29T01:14:30.858Z,3.10
2022-11-29T01:16:57.654Z,3.10
2022-11-29T01:19:24.507Z,3.10
2022-11-29T01:21:51.192Z,3.10
2022-11-29T01:24:17.899Z,3.10
2022-11-29T01:26:44.611Z,3.10
2022-11-29T01:29:12.768Z,3.10
2022-11-29T01:31:39.561Z,3.00
2022-11-29T01:34:07.439Z,2.90
2022-11-29T01:36:35.198Z,2.90
2022-11-29T01:39:04.174Z,3.00
2022-11-29T01:41:33.720Z,3.00
2022-11-29T01:44:12.514Z,3.00
2022-11-29T01:46:44.817Z,3.00
2022-11-29T01:49:20.953Z,3.00
2022-11-29T01:52:25.585Z,3.00
2022-11-29T01:54:56.680Z,2.90
2022-11-29T01:57:23.966Z,3.00
2022-11-29T01:59:56.640Z,2.90
2022-11-29T02:02:37.965Z,3.00
2022-11-29T02:05:05.557Z,2.90
2022-11-29T02:07:32.859Z,2.90
2022-11-29T02:10:00.940Z,2.90
2022-11-29T02:12:27.726Z,2.90
2022-11-29T02:15:13.436Z,2.90
2022-11-29T02:18:03.242Z,2.90
2022-11-29T02:20:59.576Z,2.90
2022-11-29T02:23:33.291Z,2.90
2022-11-29T02:26:18.567Z,2.90
2022-11-29T02:28:50.292Z,2.90
2022-11-29T02:31:35.420Z,2.90
2022-11-29T02:34:16.474Z,2.90
2022-11-29T02:37:22.525Z,3.00
2022-11-29T02:40:22.673Z,2.90
2022-11-29T02:42:57.756Z,3.00
2022-11-29T02:45:33.912Z,3.00
2022-11-29T02:48:30.113Z,3.00
2022-11-29T02:51:26.079Z,3.00
2022-11-29T02:54:12.016Z,3.00
2022-11-29T02:56:56.638Z,3.00
2022-11-29T02:59:48.023Z,3.00
2022-11-29T03:02:17.787Z,3.10
2022-11-29T03:05:17.334Z,3.10
2022-11-29T03:07:52.922Z,3.10
2022-11-29T03:10:59.509Z,3.10
2022-11-29T03:14:07.429Z,3.20
2022-11-29T03:16:43.532Z,3.20
2022-11-29T03:19:29.142Z,3.20
2022-11-29T03:22:25.556Z,3.20
2022-11-29T03:25:08.926Z,3.20
2022-11-29T03:27:42.370Z,3.10
2022-11-29T03:30:13.598Z,3.10
2022-11-29T03:33:00.555Z,3.10
2022-11-29T03:35:51.607Z,3.20
2022-11-29T03:38:32.772Z,3.10
2022-11-29T03:41:24.787Z,3.20
2022-11-29T03:43:59.826Z,3.20
2022-11-29T03:46:46.074Z,3.20
2022-11-29T03:49:22.312Z,3.10
2022-11-29T03:52:06.326Z,3.20
2022-11-29T03:54:42.292Z,3.20
2022-11-29T03:57:09.688Z,3.20
2022-11-29T03:59:54.101Z,3.10
2022-11-29T04:03:05.900Z,3.20
2022-11-29T04:06:09.793Z,3.10
2022-11-29T04:08:42.393Z,3.10
2022-11-29T04:11:54.837Z,3.10
2022-11-29T04:14:24.801Z,3.20
2022-11-29T04:17:23.268Z,3.20
2022-11-29T04:20:23.579Z,3.20
2022-11-29T04:23:10.047Z,3.20
2022-11-29T04:25:55.134Z,3.20
2022-11-29T04:28:33.708Z,3.20
2022-11-29T04:31:37.280Z,3.20
2022-11-29T04:34:22.095Z,3.20
2022-11-29T04:37:18.543Z,3.30
2022-11-29T04:40:31.206Z,3.20
2022-11-29T04:43:19.012Z,3.20
2022-11-29T04:46:11.776Z,3.20
2022-11-29T04:49:09.321Z,3.20
2022-11-29T04:52:03.240Z,3.30
2022-11-29T04:54:34.507Z,3.30
2022-11-29T04:57:18.763Z,3.20
2022-11-29T04:59:54.392Z,3.30
2022-11-29T05:02:52.869Z,3.30
2022-11-29T05:06:06.470Z,3.30
2022-11-29T05:08:38.817Z,3.30
2022-11-29T05:11:50.268Z,3.20
2022-11-29T05:14:35.164Z,3.20
2022-11-29T05:17:20.866Z,3.20
2022-11-29T05:20:03.258Z,3.20
2022-11-29T05:22:44.307Z,3.20
2022-11-29T05:25:18.699Z,3.20
2022-11-29T05:28:05.668Z,3.20
2022-11-29T05:31:11.174Z,3.30
2022-11-29T05:33:37.899Z,3.20
2022-11-29T05:36:14.557Z,3.20
2022-11-29T05:39:04.313Z,3.20
2022-11-29T05:41:57.606Z,3.20
2022-11-29T05:44:33.264Z,3.20
2022-11-29T05:47:02.560Z,3.20
2022-11-29T05:49:41.578Z,3.10
2022-11-29T05:52:56.826Z,3.10
2022-11-29T05:55:35.476Z,3.10
2022-11-29T05:58:17.519Z,3.20
2022-11-29T06:01:13.654Z,3.20
2022-11-29T06:03:52.353Z,3.20
2022-11-29T06:06:35.150Z,3.20
2022-11-29T06:09:13.141Z,3.20
2022-11-29T06:11:47.389Z,3.20
2022-11-29T06:14:24.240Z,3.20
2022-11-29T06:17:02.317Z,3.10
2022-11-29T06:19:54.134Z,3.10
2022-11-29T06:23:10.564Z,3.20
2022-11-29T06:25:44.228Z,3.20
2022-11-29T06:28:26.147Z,3.20
2022-11-29T06:31:28.321Z,3.20
2022-11-29T06:34:10.991Z,3.10
2022-11-29T06:36:41.097Z,3.10
2022-11-29T06:39:10.249Z,3.20
2022-11-29T06:41:37.396Z,3.20
2022-11-29T06:44:05.305Z,3.20
2022-11-29T06:46:45.469Z,3.20
2022-11-29T06:49:41.796Z,3.20
2022-11-29T06:52:14.662Z,3.20
2022-11-29T06:55:05.154Z,3.30
2022-11-29T06:57:57.268Z,3.30
2022-11-29T07:00:28.237Z,3.30
2022-11-29T07:03:13.645Z,3.30
2022-11-29T07:05:40.905Z,3.30
2022-11-29T07:08:16.284Z,3.30
2022-11-29T07:10:43.818Z,3.30
2022-11-29T07:13:14.014Z,3.30
2022-11-29T07:15:56.252Z,3.30
2022-11-29T07:19:07.375Z,3.40
2022-11-29T07:21:43.280Z,3.30
2022-11-29T07:24:20.299Z,3.40
2022-11-29T07:27:00.032Z,3.40
2022-11-29T07:29:39.422Z,3.40
2022-11-29T07:32:23.397Z,3.40
2022-11-29T07:35:03.819Z,3.40
2022-11-29T07:37:49.065Z,3.40
2022-11-29T07:40:24.216Z,3.50
2022-11-29T07:43:09.156Z,3.50
2022-11-29T07:45:36.747Z,3.60
2022-11-29T07:48:04.564Z,3.60
2022-11-29T07:50:31.573Z,3.50
2022-11-29T07:52:59.680Z,3.60
2022-11-29T07:55:26.737Z,3.60
2022-11-29T07:57:53.584Z,3.60
2022-11-29T08:00:21.202Z,3.60
2022-11-29T08:02:49.440Z,3.60
2022-11-29T08:05:16.551Z,3.60
2022-11-29T08:07:43.543Z,3.60
2022-11-29T08:10:13.716Z,3.60
2022-11-29T08:12:50.061Z,3.70
2022-11-29T08:15:19.025Z,3.70
2022-11-29T08:17:46.275Z,3.70
2022-11-29T08:20:15.164Z,3.80
2022-11-29T08:22:42.366Z,3.80
2022-11-29T08:25:10.021Z,3.80
2022-11-29T08:27:39.122Z,3.80
2022-11-29T08:30:07.055Z,3.80
2022-11-29T08:32:34.517Z,3.80
2022-11-29T08:35:01.413Z,3.80
2022-11-29T08:37:28.141Z,3.80
2022-11-29T08:39:55.294Z,3.90
2022-11-29T08:42:22.042Z,3.90
2022-11-29T08:44:48.862Z,3.90
2022-11-29T08:47:34.389Z,3.90
2022-11-29T08:50:01.524Z,4.00
2022-11-29T08:52:48.274Z,4.00
2022-11-29T08:55:15.779Z,4.00
2022-11-29T08:57:42.861Z,4.10
2022-11-29T09:00:10.568Z,4.10
2022-11-29T09:02:38.125Z,4.10
2022-11-29T09:05:06.856Z,4.10
2022-11-29T09:07:34.138Z,4.20
2022-11-29T09:10:05.328Z,4.10
2022-11-29T09:12:32.747Z,4.10
2022-11-29T09:14:59.544Z,4.20
2022-11-29T09:17:26.605Z,4.20
2022-11-29T09:19:53.352Z,4.20
2022-11-29T09:22:20.072Z,4.30
2022-11-29T09:24:47.168Z,4.40
2022-11-29T09:27:14.332Z,4.40
2022-11-29T09:29:41.114Z,4.40
2022-11-29T09:32:08.304Z,4.50
2022-11-29T09:34:35.380Z,4.50
2022-11-29T09:37:04.952Z,4.50
2022-11-29T09:39:33.116Z,4.50
2022-11-29T09:42:47.160Z,4.50
2022-11-29T09:45:21.960Z,4.60
2022-11-29T09:47:57.929Z,4.50
2022-11-29T09:50:34.084Z,4.50
2022-11-29T09:53:26.423Z,4.50
2022-11-29T09:56:15.206Z,4.60
2022-11-29T09:58:57.477Z,4.60
2022-11-29T10:01:53.969Z,4.60
2022-11-29T10:04:25.565Z,4.60
2022-11-29T10:07:04.993Z,4.60
2022-11-29T10:09:53.494Z,4.60
2022-11-29T10:12:44.268Z,4.70
2022-11-29T10:15:21.745Z,4.80
2022-11-29T10:18:03.926Z,4.80
2022-11-29T10:20:41.552Z,4.80
2022-11-29T10:23:18.499Z,4.80
2022-11-29T10:25:51.369Z,4.80
2022-11-29T10:28:21.954Z,4.90
2022-11-29T10:30:49.105Z,4.90
2022-11-29T10:33:23.418Z,5.00
2022-11-29T10:36:00.355Z,5.00
2022-11-29T10:38:31.469Z,5.00
2022-11-29T10:41:07.930Z,5.10
2022-11-29T10:43:37.247Z,5.10
2022-11-29T10:46:06.000Z,5.10
2022-11-29T10:48:34.580Z,5.10
2022-11-29T10:51:02.064Z,5.20
2022-11-29T10:53:37.249Z,5.20
2022-11-29T10:56:06.774Z,5.20
2022-11-29T10:58:34.345Z,5.20
2022-11-29T11:01:08.834Z,5.20
2022-11-29T11:03:42.213Z,5.20
2022-11-29T11:06:18.113Z,5.20
2022-11-29T11:09:16.518Z,5.30
2022-11-29T11:11:54.476Z,5.30
2022-11-29T11:14:23.345Z,5.20
2022-11-29T11:16:50.828Z,5.20
2022-11-29T11:19:28.387Z,5.20
2022-11-29T11:21:58.529Z,5.20
2022-11-29T11:24:31.101Z,5.20
2022-11-29T11:26:59.172Z,5.20
2022-11-29T11:29:38.588Z,5.10
2022-11-29T11:32:15.420Z,5.10
2022-11-29T11:34:55.673Z,5.10
2022-11-29T11:37:31.703Z,5.10
2022-11-29T11:40:20.690Z,5.20
2022-11-29T11:42:47.698Z,5.20
2022-11-29T11:45:14.364Z,5.30
2022-11-29T11:47:53.952Z,5.30
2022-11-29T11:50:40.795Z,5.30
2022-11-29T11:53:20.740Z,5.30
2022-11-29T11:56:00.946Z,5.30
2022-11-29T11:58:45.175Z,5.30
2022-11-29T12:01:14.871Z,5.40
2022-11-29T12:04:12.342Z,5.40
2022-11-29T12:06:45.973Z,5.40
2022-11-29T12:09:21.619Z,5.40
2022-11-29T12:12:03.622Z,5.50
2022-11-29T12:14:50.686Z,5.40
2022-11-29T12:17:30.119Z,5.40
2022-11-29T12:20:20.290Z,5.40
2022-11-29T12:23:05.131Z,5.40
2022-11-29T12:25:42.961Z,5.50
2022-11-29T12:28:19.868Z,5.50
2022-11-29T12:31:16.406Z,5.40
2022-11-29T12:34:10.765Z,5.40
2022-11-29T12:36:50.820Z,5.40
2022-11-29T12:39:56.943Z,5.40
2022-11-29T12:42:49.385Z,5.30
2022-11-29T12:45:27.073Z,5.30
2022-11-29T12:48:15.306Z,5.40
2022-11-29T12:51:03.815Z,5.30
2022-11-29T12:53:36.727Z,5.40
2022-11-29T12:56:25.356Z,5.40
2022-11-29T12:59:16.341Z,5.40
2022-11-29T13:02:19.464Z,5.40
2022-11-29T13:05:12.364Z,5.40
2022-11-29T13:08:09.824Z,5.40
2022-11-29T13:11:01.317Z,5.40
2022-11-29T13:13:42.303Z,5.40
2022-11-29T13:16:30.855Z,5.40
2022-11-29T13:19:04.046Z,5.40
2022-11-29T13:21:58.545Z,5.40
2022-11-29T13:24:42.980Z,5.40
2022-11-29T13:27:34.008Z,5.40
2022-11-29T13:30:02.708Z,5.40
2022-11-29T13:33:01.108Z,5.40
2022-11-29T13:35:35.005Z,5.30
2022-11-29T13:38:16.303Z,5.30
2022-11-29T13:40:58.480Z,5.30
2022-11-29T13:43:48.570Z,5.30
2022-11-29T13:46:43.658Z,5.30
2022-11-29T13:49:53.198Z,5.30
2022-11-29T13:52:28.980Z,5.30
2022-11-29T13:55:11.479Z,5.40
2022-11-29T14:00:43.855Z,5.40
2022-11-29T14:03:28.985Z,5.40
2022-11-29T14:06:01.639Z,5.40
2022-11-29T14:08:48.021Z,5.30
2022-11-29T14:11:35.389Z,5.30
2022-11-29T14:14:08.913Z,5.30
2022-11-29T14:16:41.760Z,5.30
2022-11-29T14:19:08.674Z,5.30
2022-11-29T14:22:05.769Z,5.30
2022-11-29T14:24:32.516Z,5.30
2022-11-29T14:27:14.256Z,5.30
2022-11-29T14:29:50.066Z,5.30
2022-11-29T14:32:45.784Z,5.30
2022-11-29T14:35:13.042Z,5.20
2022-11-29T14:38:10.810Z,5.20
2022-11-29T14:40:40.524Z,5.10
2022-11-29T14:43:27.795Z,5.20
2022-11-29T14:46:15.761Z,5.10
2022-11-29T14:49:00.260Z,5.10
2022-11-29T14:51:33.342Z,5.10
2022-11-29T14:54:15.781Z,5.10
2022-11-29T14:56:44.886Z,5.10
2022-11-29T14:59:49.987Z,5.10
2022-11-29T15:02:29.212Z,5.00
2022-11-29T15:04:57.563Z,5.00
2022-11-29T15:07:29.390Z,5.00
2022-11-29T15:10:04.915Z,5.00
2022-11-29T15:12:36.889Z,5.00
2022-11-29T15:15:43.132Z,4.90
2022-11-29T15:18:22.644Z,5.00
2022-11-29T15:21:11.110Z,5.00
2022-11-29T15:23:42.740Z,4.90
2022-11-29T15:26:20.818Z,4.90
2022-11-29T15:28:47.525Z,4.90
2022-11-29T15:31:18.778Z,4.90
2022-11-29T15:33:48.592Z,4.80
2022-11-29T15:36:22.469Z,4.90
2022-11-29T15:38:52.813Z,4.90
2022-11-29T15:41:30.400Z,4.90
2022-11-29T15:44:03.169Z,4.80
2022-11-29T15:46:32.312Z,4.80
2022-11-29T15:49:26.072Z,4.80
2022-11-29T15:52:05.575Z,4.80
2022-11-29T15:54:55.960Z,4.80
2022-11-29T15:57:31.719Z,4.80
2022-11-29T16:00:02.073Z,4.70
2022-11-29T16:02:32.593Z,4.70
2022-11-29T16:05:14.269Z,4.60
2022-11-29T16:07:44.370Z,4.70
2022-11-29T16:10:16.569Z,4.60
2022-11-29T16:13:01.284Z,4.60
2022-11-29T16:15:37.152Z,4.60
2022-11-29T16:18:09.535Z,4.60
2022-11-29T16:20:36.429Z,4.70
2022-11-29T16:23:11.541Z,4.70
2022-11-29T16:26:04.564Z,4.70
2022-11-29T16:28:42.031Z,4.70
2022-11-29T16:31:12.460Z,4.70
2022-11-29T16:33:43.671Z,4.70
2022-11-29T16:36:22.131Z,4.70
2022-11-29T16:38:53.308Z,4.70
2022-11-29T16:41:38.939Z,4.70
2022-11-29T16:44:19.829Z,4.70
2022-11-29T16:46:46.699Z,4.70
2022-11-29T16:49:36.315Z,4.70
2022-11-29T16:52:22.612Z,4.70
2022-11-29T16:54:49.934Z,4.60
2022-11-29T16:57:16.885Z,4.60
2022-11-29T16:59:44.002Z,4.60
2022-11-29T17:02:11.834Z,4.60
2022-11-29T17:04:38.750Z,4.60
2022-11-29T17:07:08.265Z,4.60
2022-11-29T17:09:35.502Z,4.60
2022-11-29T17:12:03.189Z,4.50
2022-11-29T17:14:31.483Z,4.50
2022-11-29T17:17:00.781Z,4.60
2022-11-29T17:19:29.329Z,4.60
2022-11-29T17:21:56.220Z,4.60
2022-11-29T17:24:23.706Z,4.60
2022-11-29T17:26:50.782Z,4.60
2022-11-29T17:29:18.250Z,4.50
2022-11-29T17:31:46.425Z,4.60
2022-11-29T17:34:13.440Z,4.50
2022-11-29T17:36:40.517Z,4.60
2022-11-29T17:39:07.847Z,4.50
2022-11-29T17:41:34.900Z,4.50
2022-11-29T17:44:02.045Z,4.60
2022-11-29T17:46:34.924Z,4.60
2022-11-29T17:49:04.342Z,4.60
2022-11-29T17:54:18.992Z,4.50
2022-11-29T17:56:45.725Z,4.40
2022-11-29T17:59:12.447Z,4.40
2022-11-29T18:01:39.233Z,4.40
2022-11-29T18:04:06.714Z,4.30
2022-11-29T18:06:39.061Z,4.30
2022-11-29T18:09:08.311Z,4.30
2022-11-29T18:11:46.504Z,4.30
2022-11-29T18:14:17.549Z,4.30
2022-11-29T18:16:47.205Z,4.30
2022-11-29T18:19:18.534Z,4.30
2022-11-29T18:21:45.439Z,4.30
2022-11-29T18:24:12.539Z,4.30
2022-11-29T18:26:40.149Z,4.20
2022-11-29T18:29:10.047Z,4.20
2022-11-29T18:31:39.293Z,4.20
2022-11-29T18:34:09.653Z,4.20
2022-11-29T18:36:48.050Z,4.30
2022-11-29T18:39:17.742Z,4.30
2022-11-29T18:41:47.162Z,4.30
2022-11-29T18:44:16.669Z,4.30
2022-11-29T18:46:44.948Z,4.20
2022-11-29T18:49:17.163Z,4.20
2022-11-29T18:51:45.359Z,4.10
2022-11-29T18:54:13.711Z,4.10
2022-11-29T18:56:41.173Z,4.10
2022-11-29T18:59:16.302Z,4.10
2022-11-29T19:01:45.123Z,4.00
2022-11-29T19:04:17.578Z,4.00
2022-11-29T19:06:44.776Z,4.10
2022-11-29T19:09:14.293Z,4.10
2022-11-29T19:11:41.638Z,4.10
2022-11-29T19:14:13.911Z,4.10
2022-11-29T19:16:43.339Z,4.10
2022-11-29T19:19:10.169Z,4.10
2022-11-29T19:21:37.089Z,4.10
2022-11-29T19:24:07.541Z,4.00
2022-11-29T19:26:34.790Z,4.00
2022-11-29T19:29:01.753Z,4.00
2022-11-29T19:31:29.544Z,3.90
2022-11-29T19:33:57.418Z,3.90
2022-11-29T19:36:27.221Z,4.00
2022-11-29T19:38:54.998Z,4.00
2022-11-29T19:41:27.777Z,4.00
2022-11-29T19:43:57.398Z,4.10
2022-11-29T19:46:26.540Z,4.00
2022-11-29T19:48:57.621Z,3.90
2022-11-29T19:51:25.769Z,4.00
2022-11-29T19:53:57.451Z,4.00
2022-11-29T19:56:24.910Z,4.00
2022-11-29T19:58:52.164Z,4.10
2022-11-29T20:01:25.072Z,4.10
2022-11-29T20:03:52.530Z,4.10
2022-11-29T20:06:19.892Z,4.10
2022-11-29T20:08:47.338Z,4.10
2022-11-29T20:11:22.640Z,4.00
2022-11-29T20:13:58.165Z,4.00
2022-11-29T20:16:26.707Z,3.90
2022-11-29T20:18:55.821Z,3.90
2022-11-29T20:21:25.577Z,3.90
2022-11-29T20:24:04.803Z,3.80
2022-11-29T20:26:33.641Z,3.80
2022-11-29T20:29:01.753Z,3.90
2022-11-29T20:31:29.215Z,3.80
2022-11-29T20:33:57.395Z,3.80
2022-11-29T20:36:36.141Z,3.80
2022-11-29T20:39:23.615Z,3.80
2022-11-29T20:41:53.336Z,3.90
2022-11-29T20:44:24.087Z,3.90
2022-11-29T20:46:50.973Z,3.90
2022-11-29T20:49:18.181Z,3.80
2022-11-29T20:51:53.457Z,3.90
2022-11-29T20:54:20.361Z,3.90
2022-11-29T20:56:47.064Z,3.90
2022-11-29T20:59:16.197Z,3.90
2022-11-29T21:01:42.997Z,4.00
2022-11-29T21:04:09.858Z,4.00
2022-11-29T21:06:38.358Z,4.00
2022-11-29T21:09:06.320Z,4.00
2022-11-29T21:11:33.393Z,3.90
2022-11-29T21:14:03.762Z,3.90
2022-11-29T21:16:31.955Z,3.90
2022-11-29T21:19:02.044Z,3.90
2022-11-29T21:21:32.856Z,3.90
2022-11-29T21:24:26.878Z,3.90
2022-11-29T21:26:53.545Z,3.90
2022-11-29T21:29:24.444Z,3.80
2022-11-29T21:31:53.792Z,3.80
2022-11-29T21:34:21.101Z,3.90
2022-11-29T21:36:56.535Z,3.90
2022-11-29T21:39:28.502Z,3.90
2022-11-29T21:41:55.233Z,3.90
2022-11-29T21:44:21.964Z,3.90
2022-11-29T21:46:48.761Z,3.90
2022-11-29T21:49:16.512Z,3.90
2022-11-29T21:51:43.403Z,3.80
2022-11-29T21:54:10.175Z,3.80
2022-11-29T21:56:36.899Z,3.80
2022-11-29T21:59:03.963Z,3.80
2022-11-29T22:01:30.746Z,3.80
2022-11-29T22:03:57.510Z,3.80
2022-11-29T22:06:26.066Z,3.80
2022-11-29T22:08:52.967Z,3.80
2022-11-29T22:11:30.785Z,3.70
2022-11-29T22:14:13.940Z,3.80
2022-11-29T22:16:58.221Z,3.80
2022-11-29T22:19:30.429Z,3.80
2022-11-29T22:21:59.530Z,3.70
2022-11-29T22:24:28.681Z,3.70
2022-11-29T22:26:56.225Z,3.70
2022-11-29T22:29:24.009Z,3.70
2022-11-29T22:31:52.978Z,3.70
2022-11-29T22:34:20.684Z,3.70
2022-11-29T22:36:48.031Z,3.70
2022-11-29T22:39:14.977Z,3.70
2022-11-29T22:41:41.760Z,3.80
2022-11-29T22:44:08.649Z,3.80
2022-11-29T22:46:35.708Z,3.80
2022-11-29T22:49:03.584Z,3.80
2022-11-29T22:51:37.925Z,3.80
2022-11-29T22:54:07.133Z,3.70
2022-11-29T22:56:36.725Z,3.70
2022-11-29T22:59:04.488Z,3.60
2022-11-29T23:01:33.565Z,3.60
2022-11-29T23:04:03.839Z,3.70
2022-11-29T23:06:33.059Z,3.70
2022-11-29T23:09:07.525Z,3.70
2022-11-29T23:11:34.363Z,3.80
2022-11-29T23:14:01.136Z,3.80
2022-11-29T23:16:29.651Z,3.80
2022-11-29T23:19:00.766Z,3.70
2022-11-29T23:21:33.365Z,3.70
2022-11-29T23:24:01.430Z,3.60
2022-11-29T23:26:37.363Z,3.60
2022-11-29T23:29:05.858Z,3.60
2022-11-29T23:31:33.192Z,3.70
2022-11-29T23:34:02.227Z,3.70
2022-11-29T23:36:29.241Z,3.70
2022-11-29T23:38:55.983Z,3.70
2022-11-29T23:41:22.720Z,3.70
2022-11-29T23:43:49.442Z,3.70
2022-11-29T23:46:17.376Z,3.70
2022-11-29T23:48:44.770Z,3.70
2022-11-29T23:51:12.525Z,3.60
2022-11-29T23:53:40.144Z,3.60
2022-11-29T23:56:15.526Z,3.60
2022-11-29T23:58:43.527Z,3.60
